SPJOT EPKK-EPKK
Flight info
| Callsign | SPJOT |
|---|---|
| Flight time | N/A |
| Altitude | 2000 |
| Route | DCT |
| Aircraft | DA40/L-SBDGRY/S |
Departure
| Time | 2026-05-05 10:28 |
|---|---|
| Airport | Kraków John Paul II International Airport (EPKK) |
Arrival
| Time | N/A |
|---|---|
| Airport | Kraków John Paul II International Airport (EPKK) |
| Time | Latitude | Longitude | Altitude | Speed | Heading |
|---|---|---|---|---|---|
| 2026-05-05 10:10 | 50.07693 | 19.80076 | 784 ft | 0 kts | 348° |
| 2026-05-05 10:15 | 50.07716 | 19.80067 | 784 ft | 6 kts | 351° |
| 2026-05-05 10:15 | 50.07741 | 19.80077 | 784 ft | 3 kts | 50° |
| 2026-05-05 10:15 | 50.07753 | 19.80149 | 784 ft | 11 kts | 77° |
| 2026-05-05 10:16 | 50.07770 | 19.80280 | 785 ft | 11 kts | 77° |
| 2026-05-05 10:16 | 50.07782 | 19.80332 | 785 ft | 0 kts | 55° |
| 2026-05-05 10:16 | 50.07798 | 19.80346 | 785 ft | 8 kts | 11° |
| 2026-05-05 10:16 | 50.07847 | 19.80334 | 785 ft | 1 kts | 348° |
| 2026-05-05 10:19 | 50.07884 | 19.80321 | 785 ft | 13 kts | 348° |
| 2026-05-05 10:19 | 50.07998 | 19.80270 | 784 ft | 10 kts | 323° |
| 2026-05-05 10:20 | 50.08013 | 19.80243 | 784 ft | 0 kts | 296° |
| 2026-05-05 10:21 | 50.08013 | 19.80192 | 784 ft | 0 kts | 256° |
| 2026-05-05 10:27 | 50.07996 | 19.80073 | 784 ft | 30 kts | 257° |
| 2026-05-05 10:28 | 50.07911 | 19.79463 | 796 ft | 79 kts | 257° |
| 2026-05-05 10:28 | 50.07769 | 19.78500 | 873 ft | 102 kts | 257° |
| 2026-05-05 10:28 | 50.07622 | 19.77403 | 1094 ft | 105 kts | 258° |
| 2026-05-05 10:28 | 50.07610 | 19.76294 | 1405 ft | 100 kts | 298° |
| 2026-05-05 10:29 | 50.08219 | 19.76245 | 1506 ft | 117 kts | 56° |
| 2026-05-05 10:29 | 50.08494 | 19.77454 | 1674 ft | 121 kts | 73° |
| 2026-05-05 10:29 | 50.08671 | 19.78696 | 1769 ft | 115 kts | 80° |
| 2026-05-05 10:29 | 50.08813 | 19.79924 | 1671 ft | 115 kts | 80° |
| 2026-05-05 10:30 | 50.08875 | 19.81116 | 1529 ft | 106 kts | 112° |
| 2026-05-05 10:30 | 50.08343 | 19.81400 | 1261 ft | 95 kts | 211° |
| 2026-05-05 10:30 | 50.08052 | 19.80504 | 886 ft | 88 kts | 259° |
| 2026-05-05 10:30 | 50.07939 | 19.79668 | 792 ft | 72 kts | 257° |
| 2026-05-05 10:31 | 50.07837 | 19.78936 | 788 ft | 71 kts | 257° |
| 2026-05-05 10:31 | 50.07728 | 19.78133 | 843 ft | 77 kts | 257° |
| 2026-05-05 10:31 | 50.07602 | 19.77303 | 909 ft | 86 kts | 257° |
| 2026-05-05 10:31 | 50.07526 | 19.76550 | 1210 ft | 79 kts | 263° |
| 2026-05-05 10:32 | 50.07768 | 19.75870 | 1416 ft | 87 kts | 345° |
| 2026-05-05 10:32 | 50.08399 | 19.75711 | 1574 ft | 102 kts | 5° |
| 2026-05-05 10:32 | 50.08884 | 19.76473 | 1710 ft | 116 kts | 75° |
| 2026-05-05 10:32 | 50.09027 | 19.77755 | 1838 ft | 125 kts | 84° |
| 2026-05-05 10:33 | 50.09091 | 19.79175 | 1785 ft | 139 kts | 88° |
| 2026-05-05 10:33 | 50.09070 | 19.80622 | 1790 ft | 125 kts | 94° |
| 2026-05-05 10:33 | 50.08754 | 19.81696 | 1689 ft | 103 kts | 159° |
| 2026-05-05 10:33 | 50.08151 | 19.81301 | 1185 ft | 104 kts | 248° |
| 2026-05-05 10:34 | 50.08020 | 19.80246 | 822 ft | 90 kts | 257° |
| 2026-05-05 10:34 | 50.07905 | 19.79379 | 789 ft | 75 kts | 254° |
| 2026-05-05 10:34 | 50.07773 | 19.78522 | 847 ft | 91 kts | 255° |
| 2026-05-05 10:34 | 50.07635 | 19.77471 | 983 ft | 105 kts | 260° |
| 2026-05-05 10:35 | 50.07494 | 19.76355 | 1191 ft | 108 kts | 264° |
| 2026-05-05 10:35 | 50.07911 | 19.75506 | 1405 ft | 112 kts | 333° |
| 2026-05-05 10:35 | 50.08652 | 19.75445 | 1663 ft | 113 kts | 34° |
| 2026-05-05 10:35 | 50.08984 | 19.76604 | 1742 ft | 126 kts | 77° |
| 2026-05-05 10:36 | 50.09146 | 19.77987 | 1818 ft | 132 kts | 81° |
| 2026-05-05 10:36 | 50.09272 | 19.79422 | 1846 ft | 129 kts | 84° |
| 2026-05-05 10:36 | 50.09313 | 19.80757 | 1799 ft | 119 kts | 96° |
| 2026-05-05 10:36 | 50.08797 | 19.81670 | 1558 ft | 127 kts | 172° |
| 2026-05-05 10:37 | 50.08131 | 19.81040 | 1033 ft | 113 kts | 255° |
| 2026-05-05 10:37 | 50.07985 | 19.79999 | 829 ft | 88 kts | 258° |
| 2026-05-05 10:37 | 50.07868 | 19.79148 | 785 ft | 72 kts | 258° |
| 2026-05-05 10:37 | 50.07761 | 19.78349 | 830 ft | 77 kts | 257° |
| 2026-05-05 10:38 | 50.07628 | 19.77469 | 887 ft | 91 kts | 257° |
| 2026-05-05 10:38 | 50.07485 | 19.76491 | 1056 ft | 95 kts | 244° |
| 2026-05-05 10:38 | 50.06906 | 19.76233 | 1216 ft | 102 kts | 151° |
| 2026-05-05 10:38 | 50.06617 | 19.77235 | 1291 ft | 116 kts | 83° |
| 2026-05-05 10:39 | 50.06659 | 19.78505 | 1411 ft | 117 kts | 108° |
| 2026-05-05 10:39 | 50.06120 | 19.79446 | 1499 ft | 122 kts | 146° |
| 2026-05-05 10:39 | 50.05332 | 19.79999 | 1619 ft | 123 kts | 173° |
| 2026-05-05 10:39 | 50.04566 | 19.79548 | 1672 ft | 127 kts | 233° |
| 2026-05-05 10:40 | 50.04578 | 19.78284 | 1757 ft | 127 kts | 312° |
| 2026-05-05 10:40 | 50.05439 | 19.78083 | 1655 ft | 133 kts | 23° |
| 2026-05-05 10:40 | 50.05728 | 19.79214 | 1711 ft | 126 kts | 120° |
| 2026-05-05 10:40 | 50.05045 | 19.80012 | 1675 ft | 126 kts | 173° |
| 2026-05-05 10:41 | 50.04353 | 19.79321 | 1468 ft | 133 kts | 254° |
| 2026-05-05 10:41 | 50.04713 | 19.78119 | 1346 ft | 132 kts | 336° |
| 2026-05-05 10:41 | 50.05566 | 19.78299 | 1371 ft | 121 kts | 43° |
| 2026-05-05 10:41 | 50.05428 | 19.79419 | 1303 ft | 127 kts | 139° |
| 2026-05-05 10:42 | 50.04608 | 19.78365 | 1284 ft | 121 kts | 309° |
| 2026-05-05 10:42 | 50.05386 | 19.78107 | 1281 ft | 119 kts | 14° |
| 2026-05-05 10:42 | 50.05673 | 19.79086 | 1323 ft | 118 kts | 117° |
| 2026-05-05 10:43 | 50.05008 | 19.79862 | 1259 ft | 121 kts | 174° |
| 2026-05-05 10:43 | 50.04515 | 19.79108 | 1328 ft | 114 kts | 262° |
| 2026-05-05 10:43 | 50.04855 | 19.78089 | 1269 ft | 120 kts | 338° |
| 2026-05-05 10:43 | 50.05613 | 19.78459 | 1241 ft | 121 kts | 60° |
| 2026-05-05 10:44 | 50.05384 | 19.79585 | 1245 ft | 121 kts | 137° |
| 2026-05-05 10:44 | 50.04656 | 19.79765 | 1400 ft | 107 kts | 218° |
| 2026-05-05 10:44 | 50.04488 | 19.78679 | 1334 ft | 114 kts | 288° |
| 2026-05-05 10:44 | 50.05053 | 19.77895 | 1297 ft | 116 kts | 349° |
| 2026-05-05 10:45 | 50.05697 | 19.78442 | 1263 ft | 118 kts | 80° |
| 2026-05-05 10:45 | 50.05372 | 19.79583 | 1193 ft | 121 kts | 132° |
| 2026-05-05 10:45 | 50.04669 | 19.79851 | 1272 ft | 111 kts | 217° |
| 2026-05-05 10:45 | 50.04471 | 19.78758 | 1254 ft | 112 kts | 283° |
| 2026-05-05 10:46 | 50.04967 | 19.77953 | 1295 ft | 109 kts | 349° |
| 2026-05-05 10:46 | 50.05641 | 19.78289 | 1418 ft | 103 kts | 45° |
| 2026-05-05 10:46 | 50.05598 | 19.79318 | 1303 ft | 116 kts | 142° |
| 2026-05-05 10:46 | 50.04808 | 19.79741 | 1208 ft | 114 kts | 204° |
| 2026-05-05 10:47 | 50.04490 | 19.78691 | 1199 ft | 113 kts | 272° |
| 2026-05-05 10:47 | 50.05020 | 19.78029 | 1163 ft | 115 kts | 3° |
| 2026-05-05 10:47 | 50.05674 | 19.78507 | 1223 ft | 96 kts | 50° |
| 2026-05-05 10:47 | 50.05931 | 19.79371 | 1246 ft | 81 kts | 76° |
| 2026-05-05 10:48 | 50.06056 | 19.80243 | 1210 ft | 83 kts | 75° |
| 2026-05-05 10:48 | 50.06165 | 19.81093 | 1170 ft | 79 kts | 78° |
| 2026-05-05 10:48 | 50.06315 | 19.81904 | 1150 ft | 77 kts | 65° |
| 2026-05-05 10:48 | 50.06628 | 19.82547 | 1159 ft | 73 kts | 35° |
| 2026-05-05 10:49 | 50.07078 | 19.82885 | 1190 ft | 72 kts | 14° |
| 2026-05-05 10:49 | 50.07561 | 19.82907 | 1294 ft | 72 kts | 343° |
| 2026-05-05 10:49 | 50.08013 | 19.82475 | 1315 ft | 75 kts | 312° |
| 2026-05-05 10:49 | 50.08198 | 19.81773 | 1198 ft | 72 kts | 267° |
| 2026-05-05 10:50 | 50.08121 | 19.81002 | 1050 ft | 71 kts | 258° |
| 2026-05-05 10:50 | 50.08025 | 19.80273 | 904 ft | 69 kts | 259° |
| 2026-05-05 10:50 | 50.07922 | 19.79539 | 805 ft | 68 kts | 258° |
| 2026-05-05 10:50 | 50.07823 | 19.78853 | 841 ft | 66 kts | 256° |
| 2026-05-05 10:51 | 50.07717 | 19.78109 | 930 ft | 78 kts | 258° |
| 2026-05-05 10:51 | 50.07613 | 19.77178 | 1032 ft | 99 kts | 261° |
| 2026-05-05 10:51 | 50.07413 | 19.76140 | 1151 ft | 99 kts | 227° |
| 2026-05-05 10:51 | 50.06796 | 19.76188 | 1231 ft | 104 kts | 130° |
| 2026-05-05 10:52 | 50.06698 | 19.77223 | 1336 ft | 93 kts | 87° |
| 2026-05-05 10:52 | 50.06731 | 19.78193 | 1337 ft | 90 kts | 87° |
| 2026-05-05 10:52 | 50.06769 | 19.79167 | 1369 ft | 89 kts | 86° |
| 2026-05-05 10:52 | 50.06816 | 19.80084 | 1371 ft | 83 kts | 83° |
| 2026-05-05 10:53 | 50.06884 | 19.81005 | 1347 ft | 89 kts | 82° |
| 2026-05-05 10:53 | 50.07006 | 19.81955 | 1360 ft | 87 kts | 77° |
| 2026-05-05 10:53 | 50.07283 | 19.82709 | 1418 ft | 79 kts | 31° |
| 2026-05-05 10:53 | 50.07809 | 19.82751 | 1360 ft | 82 kts | 340° |
| 2026-05-05 10:54 | 50.08211 | 19.82250 | 1263 ft | 70 kts | 293° |
| 2026-05-05 10:54 | 50.08200 | 19.81519 | 1063 ft | 67 kts | 255° |
| 2026-05-05 10:54 | 50.08099 | 19.80836 | 952 ft | 63 kts | 258° |
| 2026-05-05 10:54 | 50.07964 | 19.80043 | 1035 ft | 83 kts | 235° |
| 2026-05-05 10:55 | 50.07412 | 19.79777 | 1248 ft | 91 kts | 184° |
| 2026-05-05 10:55 | 50.06718 | 19.79693 | 1347 ft | 105 kts | 187° |
| 2026-05-05 10:55 | 50.05935 | 19.79798 | 1351 ft | 115 kts | 168° |
| 2026-05-05 10:55 | 50.05133 | 19.79877 | 1420 ft | 114 kts | 191° |
| 2026-05-05 10:56 | 50.04492 | 19.79265 | 1432 ft | 109 kts | 239° |
| 2026-05-05 10:56 | 50.04571 | 19.78198 | 1322 ft | 110 kts | 323° |
| 2026-05-05 10:56 | 50.05316 | 19.78052 | 1265 ft | 110 kts | 9° |
| 2026-05-05 10:56 | 50.05680 | 19.78881 | 1314 ft | 109 kts | 113° |
| 2026-05-05 10:57 | 50.05165 | 19.79740 | 1326 ft | 109 kts | 153° |
| 2026-05-05 10:57 | 50.04537 | 19.79522 | 1418 ft | 102 kts | 238° |
| 2026-05-05 10:57 | 50.04552 | 19.78467 | 1444 ft | 102 kts | 309° |
| 2026-05-05 10:57 | 50.05200 | 19.78139 | 1523 ft | 101 kts | 358° |
| 2026-05-05 10:58 | 50.05674 | 19.78742 | 1594 ft | 102 kts | 95° |
| 2026-05-05 10:58 | 50.05362 | 19.79724 | 1642 ft | 107 kts | 143° |
| 2026-05-05 10:58 | 50.04697 | 19.79661 | 1672 ft | 104 kts | 233° |
| 2026-05-05 10:58 | 50.04629 | 19.78619 | 1757 ft | 98 kts | 307° |
| 2026-05-05 10:59 | 50.05270 | 19.78652 | 1585 ft | 120 kts | 58° |
| 2026-05-05 10:59 | 50.05569 | 19.79772 | 1613 ft | 119 kts | 75° |
| 2026-05-05 10:59 | 50.05765 | 19.81030 | 1526 ft | 116 kts | 79° |
| 2026-05-05 10:59 | 50.05961 | 19.82204 | 1469 ft | 112 kts | 66° |
| 2026-05-05 11:00 | 50.06405 | 19.83176 | 1422 ft | 105 kts | 48° |
| 2026-05-05 11:00 | 50.06905 | 19.83778 | 1411 ft | 84 kts | 15° |
| 2026-05-05 11:00 | 50.07460 | 19.83759 | 1335 ft | 78 kts | 340° |
| 2026-05-05 11:00 | 50.07943 | 19.83380 | 1254 ft | 81 kts | 319° |
| 2026-05-05 11:01 | 50.08244 | 19.82640 | 1189 ft | 88 kts | 284° |
| 2026-05-05 11:01 | 50.08234 | 19.81802 | 1083 ft | 72 kts | 257° |
| 2026-05-05 11:01 | 50.08133 | 19.81072 | 984 ft | 68 kts | 258° |
| 2026-05-05 11:01 | 50.08032 | 19.80339 | 875 ft | 71 kts | 257° |
| 2026-05-05 11:02 | 50.07926 | 19.79573 | 795 ft | 68 kts | 258° |
| 2026-05-05 11:02 | 50.07829 | 19.78872 | 800 ft | 78 kts | 257° |
| 2026-05-05 11:02 | 50.07696 | 19.77956 | 938 ft | 93 kts | 258° |
| 2026-05-05 11:02 | 50.07569 | 19.76923 | 1162 ft | 99 kts | 262° |
| 2026-05-05 11:03 | 50.07668 | 19.75921 | 1485 ft | 94 kts | 313° |
| 2026-05-05 11:03 | 50.08320 | 19.75618 | 1690 ft | 106 kts | 2° |
| 2026-05-05 11:03 | 50.09059 | 19.75795 | 1900 ft | 109 kts | 28° |
| 2026-05-05 11:03 | 50.09368 | 19.76835 | 2053 ft | 116 kts | 86° |
| 2026-05-05 11:04 | 50.09363 | 19.78024 | 2120 ft | 108 kts | 94° |
| 2026-05-05 11:04 | 50.09290 | 19.79204 | 2095 ft | 112 kts | 97° |
| 2026-05-05 11:04 | 50.09265 | 19.80413 | 2158 ft | 110 kts | 87° |
| 2026-05-05 11:04 | 50.09335 | 19.81538 | 2274 ft | 99 kts | 82° |
| 2026-05-05 11:05 | 50.09456 | 19.82590 | 2323 ft | 98 kts | 65° |
| 2026-05-05 11:05 | 50.09943 | 19.83430 | 2388 ft | 114 kts | 43° |
| 2026-05-05 11:05 | 50.10494 | 19.84360 | 2605 ft | 117 kts | 57° |
| 2026-05-05 11:05 | 50.10794 | 19.85600 | 2586 ft | 138 kts | 79° |
| 2026-05-05 11:06 | 50.10683 | 19.87180 | 2206 ft | 160 kts | 112° |
| 2026-05-05 11:06 | 50.09950 | 19.88498 | 1827 ft | 164 kts | 156° |
| 2026-05-05 11:06 | 50.09023 | 19.88284 | 1656 ft | 129 kts | 232° |
| 2026-05-05 11:06 | 50.08869 | 19.86980 | 1629 ft | 116 kts | 249° |
| 2026-05-05 11:07 | 50.08245 | 19.86527 | 1720 ft | 110 kts | 161° |
| 2026-05-05 11:07 | 50.07918 | 19.87094 | 1746 ft | 111 kts | 100° |
| 2026-05-05 11:07 | 50.08335 | 19.88012 | 1738 ft | 113 kts | 12° |
| 2026-05-05 11:07 | 50.08892 | 19.87369 | 1679 ft | 116 kts | 278° |
| 2026-05-05 11:08 | 50.08824 | 19.86122 | 1601 ft | 117 kts | 259° |
| 2026-05-05 11:08 | 50.08659 | 19.84940 | 1521 ft | 102 kts | 258° |
| 2026-05-05 11:08 | 50.08525 | 19.83918 | 1419 ft | 91 kts | 260° |